Time;durP1;ratioP1;P1;durP2;ratioP2;P2;SDS_P1;SDS_P2;PMS_P1;PMS_P2;Temp;Humidity;BMP_temperature;BMP_pressure;BME280_temperature;BME280_humidity;BME280_pressure;Samples;Min_cycle;Max_cycle;Signal;HPM_P1;HPM_P2
2021/08/03 00:00:00;;;;;;;15.50;4.13;;;;;;;20.48;60.86;100433.88;5078685;28;20075;-63
2021/08/03 00:02:28;;;;;;;11.93;4.05;;;;;;;20.47;60.95;100426.53;5087762;28;20136;-60
2021/08/03 00:04:58;;;;;;;17.50;5.30;;;;;;;20.41;61.20;100405.25;5088637;28;20123;-61
2021/08/03 00:07:27;;;;;;;8.25;4.32;;;;;;;20.47;60.95;100416.00;5079243;28;20059;-59
2021/08/03 00:09:56;;;;;;;8.90;4.28;;;;;;;20.41;60.84;100411.75;5086436;28;20132;-61
2021/08/03 00:12:24;;;;;;;13.60;4.50;;;;;;;20.45;61.08;100404.22;5091486;28;20056;-63
2021/08/03 00:14:53;;;;;;;17.25;4.15;;;;;;;20.50;61.01;100408.81;5082056;28;20123;-62
2021/08/03 00:17:25;;;;;;;10.00;4.45;;;;;;;20.50;60.92;100414.50;5084108;28;20044;-63
2021/08/03 00:19:54;;;;;;;10.68;4.43;;;;;;;20.48;61.07;100416.88;5084199;28;20496;-63
2021/08/03 00:22:24;;;;;;;9.48;4.53;;;;;;;20.50;60.94;100432.38;5086036;28;20098;-62
2021/08/03 00:24:51;;;;;;;12.40;4.57;;;;;;;20.47;60.93;100430.19;5089228;28;20210;-62
2021/08/03 00:27:19;;;;;;;13.05;5.00;;;;;;;20.37;61.24;100430.63;5086950;28;20129;-60
2021/08/03 00:29:46;;;;;;;10.93;4.25;;;;;;;20.33;61.33;100433.34;5087726;28;20040;-61
2021/08/03 00:32:13;;;;;;;11.45;5.20;;;;;;;20.15;61.92;100414.88;5081091;28;20160;-61
2021/08/03 00:34:40;;;;;;;14.48;4.47;;;;;;;20.23;61.72;100427.28;5079519;28;20144;-59
2021/08/03 00:37:08;;;;;;;9.90;4.05;;;;;;;20.19;61.73;100427.16;5087289;28;20131;-61
2021/08/03 00:39:36;;;;;;;15.27;4.57;;;;;;;20.01;61.83;100414.34;5078701;28;20136;-59
2021/08/03 00:42:05;;;;;;;9.52;4.57;;;;;;;20.05;61.94;100427.47;5090241;28;20127;-60
2021/08/03 00:44:47;;;;;;;15.45;4.72;;;;;;;19.92;61.85;100407.91;5085800;28;20393;-59
2021/08/03 00:47:16;;;;;;;12.38;4.95;;;;;;;19.96;62.14;100423.84;5087108;28;20044;-61
2021/08/03 00:49:43;;;;;;;13.32;4.32;;;;;;;19.89;62.59;100427.25;5091220;28;20052;-61
2021/08/03 00:52:12;;;;;;;11.63;4.35;;;;;;;19.78;62.68;100423.19;5090312;28;20471;-61
2021/08/03 00:54:39;;;;;;;16.53;5.10;;;;;;;19.93;62.83;100438.75;5088709;28;20131;-61
2021/08/03 00:57:08;;;;;;;10.40;4.90;;;;;;;19.99;62.58;100430.84;5086479;28;20079;-61
2021/08/03 00:59:35;;;;;;;11.68;4.38;;;;;;;19.93;62.57;100438.75;5083694;28;20448;-60
2021/08/03 01:02:03;;;;;;;11.52;4.10;;;;;;;19.80;62.30;100417.19;5088005;28;20130;-59
2021/08/03 01:04:31;;;;;;;12.50;4.82;;;;;;;19.80;62.34;100432.19;5094382;28;20123;-59
2021/08/03 01:07:13;;;;;;;21.25;5.22;;;;;;;19.73;62.50;100420.56;5093346;28;20101;-60
2021/08/03 01:10:12;;;;;;;11.68;5.50;;;;;;;19.57;62.59;100403.31;5075280;28;20048;-64
2021/08/03 01:13:10;;;;;;;14.52;5.32;;;;;;;19.57;62.46;100417.50;5085159;28;20470;-62
2021/08/03 01:16:08;;;;;;;13.63;5.00;;;;;;;19.52;62.75;100414.88;5093962;28;20124;-59
2021/08/03 01:18:55;;;;;;;16.40;7.93;;;;;;;19.35;62.80;100403.66;5093543;28;20122;-63
2021/08/03 01:21:46;;;;;;;14.98;6.72;;;;;;;19.46;62.98;100419.09;5081361;28;20104;-60
2021/08/03 01:24:16;;;;;;;18.88;6.15;;;;;;;19.52;62.94;100420.53;5084471;28;20123;-63
2021/08/03 01:26:45;;;;;;;16.02;4.90;;;;;;;19.48;63.16;100421.56;5086243;28;20087;-62
2021/08/03 01:29:16;;;;;;;14.40;6.32;;;;;;;19.45;63.17;100425.91;5093328;28;20135;-58
2021/08/03 01:31:48;;;;;;;12.77;5.13;;;;;;;19.32;63.08;100404.34;5092012;28;20127;-59
2021/08/03 01:34:17;;;;;;;12.93;6.25;;;;;;;19.13;63.35;100380.16;5083019;28;20055;-65
2021/08/03 01:36:51;;;;;;;15.18;5.10;;;;;;;19.34;63.57;100413.31;5093282;28;20139;-61
2021/08/03 01:39:24;;;;;;;19.10;5.63;;;;;;;19.22;63.48;100380.09;5090881;28;20670;-61
2021/08/03 01:41:53;;;;;;;11.13;4.30;;;;;;;19.35;63.62;100400.81;5092162;28;20080;-61
2021/08/03 01:44:21;;;;;;;12.40;5.28;;;;;;;19.24;63.40;100385.41;5082296;28;20126;-61
2021/08/03 01:46:49;;;;;;;20.60;5.65;;;;;;;19.24;63.59;100385.41;5092878;28;20570;-63
2021/08/03 01:49:20;;;;;;;11.20;4.45;;;;;;;19.32;63.79;100398.69;5094057;28;20087;-59
2021/08/03 01:51:48;;;;;;;14.05;6.28;;;;;;;19.33;63.65;100411.66;5080334;28;20123;-60
2021/08/03 01:54:16;;;;;;;11.57;4.53;;;;;;;19.22;63.81;100393.44;5077464;28;20079;-61
2021/08/03 01:56:45;;;;;;;13.55;4.97;;;;;;;19.35;63.99;100414.97;5093791;28;20527;-63
2021/08/03 01:59:13;;;;;;;11.40;4.60;;;;;;;19.32;63.82;100407.19;5082753;28;20068;-60
2021/08/03 02:01:41;;;;;;;15.40;4.20;;;;;;;19.36;63.61;100411.81;5081461;28;20083;-58
2021/08/03 02:04:10;;;;;;;11.35;5.35;;;;;;;19.23;63.68;100406.41;5084679;28;20072;-59
2021/08/03 02:06:38;;;;;;;12.60;4.78;;;;;;;19.15;63.77;100400.47;5092717;28;20159;-58
2021/08/03 02:09:07;;;;;;;16.27;5.47;;;;;;;19.14;63.99;100412.09;5086768;28;20136;-59
2021/08/03 02:11:36;;;;;;;20.45;5.95;;;;;;;19.14;63.88;100420.59;5088953;28;20087;-58
2021/08/03 02:14:04;;;;;;;14.90;5.30;;;;;;;19.15;64.20;100425.94;5081041;28;20472;-58
2021/08/03 02:16:33;;;;;;;16.15;6.35;;;;;;;19.12;64.35;100417.28;5080092;28;20489;-59
2021/08/03 02:19:02;;;;;;;14.05;5.00;;;;;;;19.11;64.53;100415.63;5074919;28;20489;-59
2021/08/03 02:21:29;;;;;;;13.87;6.27;;;;;;;19.11;64.54;100422.13;5107118;27;20123;-60
2021/08/03 02:23:57;;;;;;;13.98;4.78;;;;;;;19.00;64.74;100401.03;5086820;28;20296;-60
2021/08/03 02:26:24;;;;;;;14.00;4.88;;;;;;;19.02;65.03;100420.50;5087504;28;20126;-57
2021/08/03 02:28:50;;;;;;;13.90;4.63;;;;;;;18.89;65.01;100402.59;5091020;28;20162;-56
2021/08/03 02:31:29;;;;;;;9.60;3.90;;;;;;;18.59;65.79;100377.06;5089527;28;20510;-57
2021/08/03 02:34:16;;;;;;;12.65;4.57;;;;;;;18.53;65.95;100392.56;5080412;28;20105;-55
2021/08/03 02:36:47;;;;;;;17.95;5.35;;;;;;;18.57;66.19;100390.72;5095302;28;20078;-57
2021/08/03 02:39:17;;;;;;;14.45;4.60;;;;;;;18.46;66.41;100378.97;5083524;28;20044;-59
2021/08/03 02:41:46;;;;;;;11.02;4.43;;;;;;;18.52;66.92;100378.75;5086003;28;20114;-59
2021/08/03 02:44:14;;;;;;;9.57;4.38;;;;;;;18.50;66.93;100376.28;5090103;28;20147;-59
2021/08/03 02:46:41;;;;;;;13.60;4.30;;;;;;;18.56;67.19;100385.38;5085274;28;20054;-59
2021/08/03 02:49:17;;;;;;;15.10;4.43;;;;;;;18.55;67.36;100395.88;5087327;28;20128;-59
2021/08/03 02:51:45;;;;;;;17.10;4.80;;;;;;;18.50;67.43;100378.28;5080276;28;20086;-58
2021/08/03 02:54:27;;;;;;;12.52;4.00;;;;;;;18.54;67.82;100408.38;5077450;28;20159;-59
2021/08/03 02:56:57;;;;;;;15.00;5.03;;;;;;;18.47;67.74;100394.75;5086857;28;20055;-59
2021/08/03 02:59:26;;;;;;;10.45;5.38;;;;;;;18.63;67.41;100423.31;5083010;28;20036;-59
2021/08/03 03:01:56;;;;;;;9.77;4.17;;;;;;;18.62;67.33;100415.16;5088041;28;20130;-59
2021/08/03 03:04:25;;;;;;;;;;;;;;;18.73;66.70;100424.94;5087027;28;20837;-59
2021/08/03 03:06:57;;;;;;;13.93;4.00;;;;;;;18.85;66.49;100429.91;5084713;28;20376;-58
2021/08/03 03:09:27;;;;;;;14.60;4.55;;;;;;;18.91;66.24;100425.72;5083139;28;20475;-59
2021/08/03 03:11:56;;;;;;;14.30;4.20;;;;;;;18.99;66.29;100410.69;5089561;28;20044;-59
2021/08/03 03:14:26;;;;;;;11.50;4.10;;;;;;;18.97;66.19;100423.53;5086973;28;20052;-59
2021/08/03 03:16:56;;;;;;;16.80;4.82;;;;;;;19.04;65.83;100427.50;5084384;28;20507;-60
2021/08/03 03:19:25;;;;;;;8.98;4.35;;;;;;;18.93;66.08;100420.53;5077355;28;20082;-59
2021/08/03 03:21:53;;;;;;;11.88;4.63;;;;;;;18.94;65.89;100431.53;5083094;28;20040;-58
2021/08/03 03:24:21;;;;;;;13.45;4.63;;;;;;;18.96;66.06;100436.84;5082668;28;20565;-59
2021/08/03 03:26:50;;;;;;;11.55;4.57;;;;;;;18.76;66.13;100403.66;5076343;28;20087;-59
2021/08/03 03:29:18;;;;;;;17.23;5.13;;;;;;;18.83;66.40;100418.09;5090200;28;20119;-59
2021/08/03 03:31:47;;;;;;;8.85;4.93;;;;;;;18.91;66.07;100439.88;5077759;28;20131;-60
2021/08/03 03:34:16;;;;;;;25.17;5.70;;;;;;;18.88;65.89;100441.38;5091038;28;20054;-60
2021/08/03 03:36:44;;;;;;;14.77;4.70;;;;;;;18.87;65.95;100450.19;5087277;28;20147;-60
2021/08/03 03:39:12;;;;;;;16.90;4.70;;;;;;;18.84;66.17;100453.72;5083956;28;20048;-60
2021/08/03 03:41:43;;;;;;;17.98;5.75;;;;;;;18.80;66.11;100447.88;5082991;28;20083;-60
2021/08/03 03:44:09;;;;;;;14.57;5.75;;;;;;;18.81;66.11;100466.53;5084988;28;20139;-60
2021/08/03 03:46:48;;;;;;;11.77;5.70;;;;;;;18.78;66.14;100457.91;5085976;28;20143;-60
2021/08/03 03:49:22;;;;;;;16.85;6.05;;;;;;;18.72;66.61;100447.94;5090848;28;20048;-60
2021/08/03 03:51:49;;;;;;;18.17;6.45;;;;;;;18.64;66.13;100458.09;5077560;28;20131;-61
2021/08/03 03:54:38;;;;;;;18.23;7.13;;;;;;;18.60;66.52;100451.44;5080507;28;20131;-61
2021/08/03 03:57:09;;;;;;;19.67;6.35;;;;;;;18.72;66.30;100467.72;5087198;28;20055;-59
2021/08/03 03:59:42;;;;;;;19.58;6.07;;;;;;;18.69;66.25;100472.84;5084845;28;20040;-60
2021/08/03 04:02:12;;;;;;;20.80;6.03;;;;;;;18.42;66.01;100439.31;5087561;28;20076;-60
2021/08/03 04:04:41;;;;;;;16.40;6.88;;;;;;;18.64;66.06;100473.06;5079497;28;20450;-60
2021/08/03 04:07:08;;;;;;;16.95;6.25;;;;;;;18.63;66.30;100479.88;5087775;28;20158;-60
2021/08/03 04:09:38;;;;;;;22.77;5.90;;;;;;;18.61;66.24;100493.50;5085264;28;20044;-59
2021/08/03 04:12:05;;;;;;;15.48;5.45;;;;;;;18.59;66.17;100495.00;5085542;28;20044;-59
2021/08/03 04:14:34;;;;;;;20.42;6.00;;;;;;;18.43;66.33;100472.94;5082604;28;20083;-61
2021/08/03 04:17:01;;;;;;;19.90;6.60;;;;;;;18.50;66.28;100491.38;5085534;28;20127;-62
2021/08/03 04:19:27;;;;;;;31.90;7.47;;;;;;;18.47;66.62;100498.53;5089977;28;20127;-61
2021/08/03 04:21:54;;;;;;;27.38;6.93;;;;;;;18.41;66.56;100488.56;5102118;28;20496;-60
2021/08/03 04:24:21;;;;;;;21.65;8.25;;;;;;;18.43;67.05;100491.91;5083800;28;20515;-60
2021/08/03 04:26:48;;;;;;;29.30;7.47;;;;;;;18.40;66.76;100489.75;5096835;28;20092;-61
2021/08/03 04:29:15;;;;;;;30.58;7.57;;;;;;;18.46;67.16;100496.84;5079283;28;20865;-61
2021/08/03 04:31:42;;;;;;;25.90;7.50;;;;;;;18.45;66.68;100493.22;5086554;28;20075;-59
2021/08/03 04:34:09;;;;;;;24.65;8.02;;;;;;;18.32;67.04;100467.94;5090287;28;20051;-59
2021/08/03 04:36:36;;;;;;;18.95;6.43;;;;;;;18.30;67.34;100467.47;5086862;28;20135;-59
2021/08/03 04:39:10;;;;;;;27.02;6.72;;;;;;;18.31;67.65;100480.44;5086482;28;20482;-60
2021/08/03 04:41:39;;;;;;;30.98;7.53;;;;;;;18.20;67.55;100466.66;5091124;28;20090;-63
2021/08/03 04:44:06;;;;;;;18.42;6.50;;;;;;;18.08;67.70;100462.81;5091829;28;20491;-61
2021/08/03 04:46:33;;;;;;;33.55;8.55;;;;;;;18.06;68.00;100482.94;5079560;28;20106;-60
2021/08/03 04:49:00;;;;;;;20.25;7.43;;;;;;;18.09;68.01;100478.63;5092579;28;20040;-61
2021/08/03 04:51:27;;;;;;;28.60;7.32;;;;;;;18.12;67.87;100475.97;5082753;28;20044;-57
2021/08/03 04:53:54;;;;;;;16.60;5.85;;;;;;;18.11;67.97;100477.13;5085141;28;20469;-59
2021/08/03 04:56:21;;;;;;;18.88;7.03;;;;;;;18.06;67.95;100482.13;5089616;28;20123;-60
2021/08/03 04:58:48;;;;;;;17.88;6.72;;;;;;;17.98;67.82;100476.13;5085669;28;20079;-60
2021/08/03 05:01:14;;;;;;;14.82;6.18;;;;;;;17.99;68.21;100471.31;5089087;28;20559;-62
2021/08/03 05:03:42;;;;;;;20.95;7.15;;;;;;;17.89;67.96;100457.53;5092244;28;20044;-62
2021/08/03 05:06:09;;;;;;;23.17;6.80;;;;;;;18.07;67.90;100483.78;5087622;28;20123;-61
2021/08/03 05:08:35;;;;;;;20.55;6.25;;;;;;;17.72;67.79;100428.06;5082760;28;20088;-61
2021/08/03 05:11:02;;;;;;;24.83;6.43;;;;;;;18.07;68.07;100478.94;5104097;28;20079;-61
2021/08/03 05:13:29;;;;;;;18.02;6.30;;;;;;;17.98;68.31;100478.09;5085588;28;20106;-62
2021/08/03 05:15:56;;;;;;;14.52;4.72;;;;;;;17.73;68.59;100465.63;5099531;27;20447;-63
2021/08/03 05:18:23;;;;;;;20.30;6.97;;;;;;;17.76;68.68;100491.22;5100059;28;20075;-60
2021/08/03 05:20:50;;;;;;;20.77;5.78;;;;;;;17.68;68.73;100477.91;5091255;28;20127;-59
2021/08/03 05:23:17;;;;;;;17.40;5.82;;;;;;;17.76;68.70;100494.06;5096859;28;20139;-59
2021/08/03 05:25:44;;;;;;;25.17;6.70;;;;;;;17.64;69.30;100491.03;5085093;28;20110;-59
2021/08/03 05:28:11;;;;;;;19.38;6.65;;;;;;;17.57;69.69;100495.47;5086401;28;20063;-59
2021/08/03 05:30:37;;;;;;;15.90;5.93;;;;;;;17.50;69.99;100493.13;5086468;28;20146;-60
2021/08/03 05:33:04;;;;;;;16.38;6.10;;;;;;;17.47;70.01;100494.66;5085243;28;20296;-59
2021/08/03 05:35:31;;;;;;;12.88;5.15;;;;;;;17.32;70.35;100488.63;5091677;28;20104;-61
2021/08/03 05:37:58;;;;;;;14.00;6.43;;;;;;;17.35;70.37;100499.25;5089883;28;20113;-62
2021/08/03 05:40:25;;;;;;;16.65;6.45;;;;;;;17.35;70.45;100500.09;5080205;28;20040;-61
2021/08/03 05:42:52;;;;;;;23.75;7.53;;;;;;;17.29;70.64;100499.41;5085005;28;20094;-61
2021/08/03 05:45:18;;;;;;;14.90;6.07;;;;;;;17.27;70.70;100496.09;5088816;28;20079;-60
2021/08/03 05:47:45;;;;;;;20.45;7.13;;;;;;;17.45;70.10;100505.44;5085691;28;20190;-63
2021/08/03 05:50:12;;;;;;;20.70;6.85;;;;;;;17.56;70.03;100500.31;5082163;28;20130;-64
2021/08/03 05:52:39;;;;;;;18.33;7.25;;;;;;;17.61;69.83;100482.41;5088371;28;20131;-65
2021/08/03 05:55:07;;;;;;;20.00;6.53;;;;;;;17.64;70.11;100482.56;5087241;28;20066;-64
2021/08/03 05:57:34;;;;;;;28.08;6.65;;;;;;;17.65;69.89;100474.91;5087367;28;20598;-62
2021/08/03 06:00:00;;;;;;;24.98;7.15;;;;;;;17.74;69.79;100484.22;5086048;28;20130;-65
2021/08/03 06:02:30;;;;;;;21.17;7.35;;;;;;;17.71;69.74;100477.25;5083700;28;20135;-66
2021/08/03 06:05:01;;;;;;;16.10;7.70;;;;;;;17.72;70.08;100476.09;5085338;28;20048;-63
2021/08/03 06:07:30;;;;;;;20.25;7.40;;;;;;;17.66;70.19;100474.56;5086104;28;20044;-63
2021/08/03 06:09:57;;;;;;;15.23;7.18;;;;;;;17.69;70.20;100482.38;5085178;28;20095;-61
2021/08/03 06:12:26;;;;;;;19.42;8.00;;;;;;;17.79;70.24;100494.56;5079086;28;20044;-63
2021/08/03 06:14:56;;;;;;;24.85;8.63;;;;;;;17.86;70.12;100483.59;5078677;28;20127;-63
2021/08/03 06:17:34;;;;;;;19.38;9.85;;;;;;;18.23;70.11;100494.25;5079604;28;20554;-62
2021/08/03 06:20:03;;;;;;;26.60;9.68;;;;;;;18.55;69.43;100494.03;5084680;28;20397;-62
2021/08/03 06:22:34;;;;;;;22.08;8.30;;;;;;;18.79;69.15;100499.97;5084374;28;20170;-62
2021/08/03 06:25:11;;;;;;;17.92;8.15;;;;;;;18.93;68.65;100499.78;5088982;28;20124;-62
2021/08/03 06:27:40;;;;;;;21.38;7.55;;;;;;;19.09;68.38;100508.56;5089981;28;20135;-62
2021/08/03 06:30:08;;;;;;;25.35;8.77;;;;;;;19.22;67.59;100492.50;5083171;28;20075;-62
2021/08/03 06:32:35;;;;;;;15.35;7.47;;;;;;;19.56;67.73;100514.16;5080044;28;20068;-62
2021/08/03 06:35:03;;;;;;;17.60;7.45;;;;;;;19.51;67.07;100478.34;5085862;28;20080;-62
2021/08/03 06:37:29;;;;;;;23.90;7.82;;;;;;;19.94;66.74;100522.59;5081255;28;20072;-62
2021/08/03 06:39:56;;;;;;;14.15;7.07;;;;;;;20.13;66.73;100528.59;5083786;28;20044;-62
2021/08/03 06:42:47;;;;;;;16.35;6.47;;;;;;;20.26;66.31;100523.00;5078989;28;20087;-62
2021/08/03 06:45:22;;;;;;;23.60;8.65;;;;;;;20.23;66.14;100506.69;5084771;28;20131;-62
2021/08/03 06:47:58;;;;;;;19.77;8.60;;;;;;;20.63;65.49;100540.22;5083235;28;20135;-62
2021/08/03 06:50:30;;;;;;;14.77;7.20;;;;;;;20.86;65.04;100534.97;5081604;28;20074;-62
2021/08/03 06:52:59;;;;;;;20.15;6.82;;;;;;;21.01;64.59;100543.63;5077839;28;20479;-62
2021/08/03 06:55:31;;;;;;;13.90;7.15;;;;;;;21.26;63.81;100532.31;5078745;28;20127;-62
2021/08/03 06:58:03;;;;;;;14.65;8.40;;;;;;;21.53;63.56;100536.50;5081976;28;20135;-62
2021/08/03 07:00:41;;;;;;;15.30;7.47;;;;;;;21.80;62.85;100534.94;5085311;28;20544;-62
2021/08/03 07:03:09;;;;;;;20.50;8.18;;;;;;;21.97;62.45;100537.53;5074588;28;20582;-62
2021/08/03 07:05:42;;;;;;;15.38;6.93;;;;;;;22.36;61.56;100546.50;5082358;28;20086;-63
2021/08/03 07:08:10;;;;;;;16.42;8.07;;;;;;;22.72;61.01;100553.22;5079779;28;20044;-63
2021/08/03 07:10:41;;;;;;;19.00;8.00;;;;;;;22.99;60.45;100531.63;5076051;28;20040;-63
2021/08/03 07:13:08;;;;;;;15.10;8.18;;;;;;;23.17;59.86;100529.25;5084260;28;20151;-62
2021/08/03 07:15:37;;;;;;;23.88;12.07;;;;;;;23.51;59.09;100553.34;5084437;28;20044;-62
2021/08/03 07:18:07;;;;;;;21.80;8.00;;;;;;;23.70;58.99;100552.63;5082271;28;20038;-61
2021/08/03 07:20:34;;;;;;;20.25;8.27;;;;;;;23.85;58.35;100566.03;5081447;28;20098;-62
2021/08/03 07:23:01;;;;;;;19.08;7.53;;;;;;;24.17;57.65;100570.81;5078675;28;20052;-62
2021/08/03 07:25:31;;;;;;;18.40;7.70;;;;;;;24.45;56.37;100547.84;5080772;28;20475;-62
2021/08/03 07:27:58;;;;;;;;;;;;;;;24.57;58.43;100550.53;5090050;28;20084;-62
2021/08/03 07:30:25;;;;;;;15.05;6.20;;;;;;;24.92;56.42;100550.44;5097837;28;19971;-62
2021/08/03 07:32:51;;;;;;;14.15;7.85;;;;;;;25.17;55.74;100576.66;5085683;28;20463;-62
2021/08/03 07:35:18;;;;;;;25.65;13.23;;;;;;;25.58;54.67;100594.16;5087547;28;20134;-63
2021/08/03 07:37:45;;;;;;;17.83;9.02;;;;;;;26.03;53.60;100577.34;5084278;28;20078;-62
2021/08/03 07:40:12;;;;;;;25.48;12.38;;;;;;;26.45;52.77;100579.97;5087390;28;20146;-62
2021/08/03 07:42:39;;;;;;;16.00;8.27;;;;;;;26.66;51.91;100588.06;5083955;28;20440;-62
2021/08/03 07:45:07;;;;;;;13.00;7.70;;;;;;;26.80;51.42;100576.78;5087625;28;20176;-62
2021/08/03 07:47:34;;;;;;;17.95;9.00;;;;;;;27.02;50.79;100575.00;5088255;28;20123;-62
2021/08/03 07:50:01;;;;;;;15.95;7.53;;;;;;;27.24;50.43;100598.19;5087381;28;20653;-62
2021/08/03 07:52:28;;;;;;;20.20;7.50;;;;;;;27.34;49.82;100603.22;5089752;28;20127;-63
2021/08/03 07:54:55;;;;;;;12.75;6.28;;;;;;;27.69;49.42;100604.78;5088020;28;20135;-62
2021/08/03 07:57:23;;;;;;;13.20;6.25;;;;;;;27.76;48.70;100607.72;5090238;28;20500;-62
2021/08/03 07:59:51;;;;;;;16.60;6.22;;;;;;;28.05;48.12;100614.53;5093263;28;20083;-62
2021/08/03 08:02:18;;;;;;;14.63;6.28;;;;;;;28.37;47.60;100620.50;5091148;28;20115;-62
2021/08/03 08:04:44;;;;;;;16.70;7.45;;;;;;;28.54;47.38;100634.16;5092904;28;20047;-62
2021/08/03 08:07:11;;;;;;;10.70;5.60;;;;;;;28.62;46.78;100625.63;5091072;28;20128;-62
2021/08/03 08:09:38;;;;;;;15.38;6.13;;;;;;;28.70;46.01;100610.88;5091846;28;20047;-63
2021/08/03 08:12:05;;;;;;;15.55;6.15;;;;;;;28.72;46.14;100619.91;5095356;28;20698;-62
2021/08/03 08:14:34;;;;;;;14.32;6.35;;;;;;;28.81;46.01;100613.78;5085368;28;20146;-63
2021/08/03 08:17:01;;;;;;;12.10;5.85;;;;;;;28.90;45.39;100614.25;5087278;28;20050;-62
2021/08/03 08:19:28;;;;;;;13.05;6.30;;;;;;;28.68;45.78;100613.31;5094461;28;20122;-62
2021/08/03 08:21:55;;;;;;;8.77;6.07;;;;;;;28.55;45.75;100632.97;5087857;28;20082;-62
2021/08/03 08:24:22;;;;;;;21.50;7.30;;;;;;;28.09;46.08;100624.81;5085789;28;20044;-62
2021/08/03 08:26:50;;;;;;;15.95;6.80;;;;;;;27.66;46.06;100592.06;5091207;28;20040;-62
2021/08/03 08:29:17;;;;;;;15.40;7.00;;;;;;;27.94;46.38;100625.13;5084593;28;20048;-62
2021/08/03 08:31:44;;;;;;;12.30;5.45;;;;;;;28.26;45.61;100602.38;5087659;28;20095;-64
2021/08/03 08:34:12;;;;;;;10.77;6.07;;;;;;;28.89;44.65;100629.84;5093983;28;20044;-62
2021/08/03 08:36:39;;;;;;;12.98;5.68;;;;;;;29.35;43.74;100643.56;5088668;28;21089;-63
2021/08/03 08:39:07;;;;;;;10.57;5.88;;;;;;;29.46;43.72;100630.03;5088150;28;20119;-63
2021/08/03 08:41:35;;;;;;;13.88;6.03;;;;;;;29.09;43.77;100635.28;5090681;28;20563;-62
2021/08/03 08:44:02;;;;;;;9.98;5.18;;;;;;;29.08;43.85;100648.00;5090652;28;20048;-63
2021/08/03 08:46:37;;;;;;;10.80;5.35;;;;;;;29.38;43.41;100633.31;5090198;28;20143;-64
2021/08/03 08:49:06;;;;;;;13.48;5.43;;;;;;;29.77;42.91;100636.28;5086523;28;20438;-63
2021/08/03 08:51:33;;;;;;;;;;;;;;;29.87;44.91;100631.75;5087453;28;22174;-63
2021/08/03 08:54:01;;;;;;;12.88;5.82;;;;;;;30.30;42.12;100620.25;5087817;28;19998;-63
2021/08/03 08:56:28;;;;;;;11.48;5.80;;;;;;;30.42;41.72;100616.91;5089729;28;20130;-63
2021/08/03 08:58:55;;;;;;;10.27;4.88;;;;;;;30.51;41.54;100622.25;5090292;28;20125;-63
2021/08/03 09:01:22;;;;;;;10.00;5.65;;;;;;;30.73;41.06;100637.41;5090417;28;20040;-63
2021/08/03 09:03:49;;;;;;;12.35;4.80;;;;;;;31.00;40.24;100646.41;5072619;28;120996;-63
2021/08/03 09:06:21;;;;;;;13.05;6.30;;;;;;;31.25;39.91;100641.34;5046140;28;20132;-63
2021/08/03 09:08:49;;;;;;;12.18;5.32;;;;;;;31.33;39.74;100653.69;5048055;28;20092;-63
2021/08/03 09:11:21;;;;;;;11.68;6.15;;;;;;;31.37;39.36;100649.53;5037107;28;20041;-63
2021/08/03 09:14:14;;;;;;;10.60;5.57;;;;;;;31.44;39.62;100637.13;5037691;28;20124;-63
2021/08/03 09:16:44;;;;;;;9.70;4.68;;;;;;;31.57;39.13;100635.41;5038034;28;20053;-64
2021/08/03 09:19:37;;;;;;;9.07;5.38;;;;;;;31.54;39.55;100630.47;5033888;28;20038;-63
2021/08/03 09:22:28;;;;;;;10.57;4.47;;;;;;;31.55;39.32;100611.09;5035417;28;20049;-63
2021/08/03 09:25:12;;;;;;;10.50;4.60;;;;;;;31.67;38.96;100627.91;5044483;28;20114;-62
2021/08/03 09:27:43;;;;;;;9.20;4.30;;;;;;;31.71;37.94;100622.94;5040210;28;20041;-62
2021/08/03 09:30:32;;;;;;;14.93;5.60;;;;;;;31.80;37.75;100611.72;5039684;28;20076;-63
2021/08/03 09:33:00;;;;;;;6.15;3.83;;;;;;;32.00;36.87;100622.72;5037665;28;20103;-63
2021/08/03 09:35:27;;;;;;;9.32;4.45;;;;;;;32.08;36.62;100622.22;5044333;28;20137;-63
2021/08/03 09:37:55;;;;;;;13.20;5.50;;;;;;;32.38;36.89;100619.88;5053075;28;20127;-63
2021/08/03 09:40:24;;;;;;;9.30;4.70;;;;;;;32.69;36.14;100629.47;5043822;28;20144;-63
2021/08/03 09:43:01;;;;;;;8.32;4.68;;;;;;;32.75;36.01;100622.81;5043216;28;20054;-62
2021/08/03 09:45:30;;;;;;;12.88;5.55;;;;;;;33.00;35.29;100624.59;5043358;28;20529;-62
2021/08/03 09:48:07;;;;;;;13.13;4.18;;;;;;;33.16;35.02;100616.06;5043335;28;20045;-61
2021/08/03 09:51:04;;;;;;;9.25;4.93;;;;;;;33.24;35.17;100620.53;5049134;28;20085;-61
2021/08/03 09:53:53;;;;;;;12.10;4.50;;;;;;;33.21;35.21;100606.91;5053361;28;20573;-62
2021/08/03 09:56:22;;;;;;;;;;;;;;;33.31;36.85;100625.38;5039342;28;20096;-62
2021/08/03 09:58:59;;;;;;;7.78;4.07;;;;;;;33.70;34.92;100601.63;5042974;28;19931;-61
2021/08/03 10:01:30;;;;;;;8.27;3.90;;;;;;;33.95;34.01;100612.00;5044349;28;20447;-61
2021/08/03 10:04:01;;;;;;;7.20;3.55;;;;;;;34.11;33.75;100603.44;5032133;28;20044;-62
2021/08/03 10:06:28;;;;;;;8.40;4.07;;;;;;;34.04;33.39;100594.88;5047161;28;20100;-61
2021/08/03 10:08:56;;;;;;;6.57;3.95;;;;;;;34.25;33.10;100619.75;5041333;28;20080;-61
2021/08/03 10:11:23;;;;;;;8.80;4.25;;;;;;;34.14;32.68;100619.97;5044156;28;20500;-61
2021/08/03 10:13:51;;;;;;;9.27;5.72;;;;;;;34.17;32.92;100612.47;5039603;28;20068;-61
2021/08/03 10:16:21;;;;;;;7.13;3.67;;;;;;;34.18;32.76;100614.91;5039621;28;20051;-62
2021/08/03 10:18:50;;;;;;;12.77;4.07;;;;;;;34.32;32.03;100610.91;5042963;28;20049;-61
2021/08/03 10:21:17;;;;;;;5.47;3.60;;;;;;;34.37;32.31;100627.00;5029928;28;20135;-61
2021/08/03 10:23:46;;;;;;;4.13;3.00;;;;;;;34.39;32.40;100596.31;5032782;28;20073;-61
2021/08/03 10:26:14;;;;;;;4.38;2.92;;;;;;;34.50;31.23;100612.66;5038751;28;20145;-61
2021/08/03 10:28:42;;;;;;;7.43;3.10;;;;;;;34.34;31.83;100611.31;5036187;28;20129;-61
2021/08/03 10:31:40;;;;;;;8.52;3.15;;;;;;;34.09;32.60;100611.78;5036207;28;20132;-61
2021/08/03 10:34:07;;;;;;;5.07;2.78;;;;;;;34.04;32.26;100623.03;5038000;28;20889;-62
2021/08/03 10:36:36;;;;;;;4.40;2.70;;;;;;;33.95;32.16;100636.00;5037828;28;20053;-62
2021/08/03 10:39:14;;;;;;;6.35;2.95;;;;;;;33.92;32.34;100621.56;5036571;28;20570;-62
2021/08/03 10:41:59;;;;;;;7.75;3.40;;;;;;;33.87;32.55;100619.16;5039254;28;20080;-62
2021/08/03 10:44:45;;;;;;;5.78;3.47;;;;;;;33.93;32.78;100597.13;5045762;28;20123;-62
2021/08/03 10:47:30;;;;;;;6.18;3.53;;;;;;;34.18;32.60;100608.28;5050826;28;20083;-62
2021/08/03 10:50:25;;;;;;;5.03;3.30;;;;;;;34.30;32.17;100603.97;5043420;28;20091;-61
2021/08/03 10:52:52;;;;;;;6.85;3.75;;;;;;;34.24;32.13;100631.81;5050883;28;20505;-61
2021/08/03 10:55:36;;;;;;;7.57;3.22;;;;;;;34.40;31.76;100618.25;5052606;28;20137;-61
2021/08/03 10:58:23;;;;;;;9.10;3.53;;;;;;;34.61;31.89;100614.13;5061166;28;20182;-63
2021/08/03 11:00:53;;;;;;;4.35;2.60;;;;;;;34.53;31.06;100630.03;5048409;28;20076;-62
2021/08/03 11:03:33;;;;;;;7.20;2.72;;;;;;;34.31;31.32;100629.59;5049275;28;20080;-62
2021/08/03 11:06:00;;;;;;;7.43;3.15;;;;;;;34.46;31.36;100632.22;5032312;28;20084;-61
2021/08/03 11:08:34;;;;;;;4.45;2.70;;;;;;;34.48;31.04;100627.63;5039288;28;20546;-62
2021/08/03 11:11:07;;;;;;;4.57;2.90;;;;;;;34.25;31.06;100619.75;5051924;28;20048;-62
2021/08/03 11:13:41;;;;;;;7.35;3.00;;;;;;;34.22;31.21;100626.44;5041314;28;20091;-62
2021/08/03 11:16:19;;;;;;;4.65;3.20;;;;;;;34.03;31.47;100625.13;5033377;28;20068;-62
2021/08/03 11:18:48;;;;;;;;;;;;;;;33.51;33.32;100634.22;5037561;28;20053;-61
2021/08/03 11:21:17;;;;;;;5.00;2.92;;;;;;;33.93;32.13;100626.09;5046407;28;19971;-62
2021/08/03 11:23:58;;;;;;;3.97;2.83;;;;;;;34.01;31.93;100630.53;5043191;28;20587;-62
2021/08/03 11:26:37;;;;;;;3.80;2.40;;;;;;;34.09;31.46;100616.75;5054100;28;20990;-62
2021/08/03 11:29:12;;;;;;;7.93;3.00;;;;;;;34.23;30.81;100624.38;5047616;28;20611;-62
2021/08/03 11:31:50;;;;;;;7.30;3.03;;;;;;;34.07;31.52;100625.06;5037232;28;20564;-62
2021/08/03 11:34:34;;;;;;;6.30;2.73;;;;;;;33.94;31.37;100619.03;5048586;28;20049;-62